createdAt,value
2023-04-18T00:01:38.723Z,7.63
2023-04-18T00:04:13.646Z,7.58
2023-04-18T00:06:46.296Z,7.46
2023-04-18T00:09:18.106Z,7.50
2023-04-18T00:11:51.075Z,7.54
2023-04-18T00:14:23.110Z,7.56
2023-04-18T00:16:54.886Z,7.50
2023-04-18T00:19:26.719Z,7.53
2023-04-18T00:21:59.842Z,7.48
2023-04-18T00:24:31.768Z,7.56
2023-04-18T00:27:05.061Z,7.45
2023-04-18T00:29:36.940Z,7.47
2023-04-18T00:32:09.005Z,7.57
2023-04-18T00:34:40.948Z,7.53
2023-04-18T00:37:12.616Z,7.51
2023-04-18T00:39:44.450Z,7.41
2023-04-18T00:42:17.630Z,7.42
2023-04-18T00:44:49.723Z,7.30
2023-04-18T00:47:21.602Z,7.34
2023-04-18T00:49:53.897Z,7.13
2023-04-18T00:52:28.411Z,7.19
2023-04-18T00:55:00.429Z,7.10
2023-04-18T00:57:33.856Z,7.17
2023-04-18T01:00:10.015Z,7.22
2023-04-18T01:02:43.935Z,7.18
2023-04-18T01:05:15.923Z,7.19
2023-04-18T01:07:48.382Z,7.06
2023-04-18T01:10:20.845Z,7.19
2023-04-18T01:13:11.093Z,7.22
2023-04-18T01:15:45.100Z,7.18
2023-04-18T01:18:18.978Z,7.19
2023-04-18T01:20:54.567Z,7.16
2023-04-18T01:23:26.623Z,7.20
2023-04-18T01:25:59.832Z,7.16
2023-04-18T01:28:31.751Z,7.14
2023-04-18T01:31:03.615Z,7.21
2023-04-18T01:33:35.433Z,7.20
2023-04-18T01:36:07.451Z,7.13
2023-04-18T01:38:39.275Z,7.09
2023-04-18T01:41:12.456Z,7.05
2023-04-18T01:43:44.245Z,7.07
2023-04-18T01:46:16.750Z,6.97
2023-04-18T01:48:48.573Z,7.03
2023-04-18T01:51:20.436Z,6.97
2023-04-18T01:53:52.225Z,7.01
2023-04-18T01:56:25.379Z,6.83
2023-04-18T01:58:57.322Z,6.86
2023-04-18T02:01:29.167Z,6.85
2023-04-18T02:04:01.147Z,6.82
2023-04-18T02:06:34.190Z,6.89
2023-04-18T02:09:07.422Z,6.91
2023-04-18T02:11:40.344Z,6.78
2023-04-18T02:14:12.356Z,6.83
2023-04-18T02:16:44.211Z,6.73
2023-04-18T02:19:16.051Z,6.74
2023-04-18T02:21:47.891Z,6.73
2023-04-18T02:24:19.735Z,6.79
2023-04-18T02:26:53.810Z,6.70
2023-04-18T02:29:25.749Z,6.64
2023-04-18T02:31:58.247Z,6.58
2023-04-18T02:34:29.959Z,6.66
2023-04-18T02:37:01.910Z,6.66
2023-04-18T02:39:33.686Z,6.60
2023-04-18T02:42:06.894Z,6.67
2023-04-18T02:44:38.821Z,6.67
2023-04-18T02:47:10.848Z,6.58
2023-04-18T02:49:42.602Z,6.68
2023-04-18T02:52:14.474Z,6.56
2023-04-18T02:54:46.367Z,6.42
2023-04-18T02:57:19.388Z,6.48
2023-04-18T02:59:51.162Z,6.50
2023-04-18T03:02:23.261Z,6.52
2023-04-18T03:04:56.254Z,6.45
2023-04-18T03:07:27.896Z,6.53
2023-04-18T03:09:59.876Z,6.44
2023-04-18T03:12:32.796Z,6.42
2023-04-18T03:15:04.838Z,6.42
2023-04-18T03:17:37.136Z,6.50
2023-04-18T03:20:12.158Z,6.41
2023-04-18T03:22:43.698Z,6.50
2023-04-18T03:25:15.574Z,6.47
2023-04-18T03:27:48.638Z,6.46
2023-04-18T03:30:21.220Z,6.50
2023-04-18T03:32:53.761Z,6.53
2023-04-18T03:35:25.381Z,6.56
2023-04-18T03:37:57.419Z,6.55
2023-04-18T03:40:28.971Z,6.47
2023-04-18T03:43:01.885Z,6.44
2023-04-18T03:45:33.785Z,6.39
2023-04-18T03:48:06.275Z,6.44
2023-04-18T03:50:38.131Z,6.44
2023-04-18T03:53:09.985Z,6.33
2023-04-18T03:55:42.324Z,6.40
2023-04-18T03:58:16.164Z,6.43
2023-04-18T04:00:47.747Z,6.38
2023-04-18T04:03:19.856Z,6.34
2023-04-18T04:05:51.909Z,6.42
2023-04-18T04:08:23.752Z,6.49
2023-04-18T04:10:55.556Z,6.38
2023-04-18T04:13:28.520Z,6.37
2023-04-18T04:16:00.546Z,6.32
2023-04-18T04:18:32.175Z,6.34
2023-04-18T04:21:04.050Z,6.28
2023-04-18T04:23:35.968Z,6.36
2023-04-18T04:26:08.218Z,6.40
2023-04-18T04:28:41.257Z,6.37
2023-04-18T04:31:13.169Z,6.33
2023-04-18T04:33:44.941Z,6.34
2023-04-18T04:36:23.001Z,6.37
2023-04-18T04:38:55.028Z,6.32
2023-04-18T04:41:27.763Z,6.36
2023-04-18T04:44:01.784Z,6.41
2023-04-18T04:46:34.506Z,6.32
2023-04-18T04:49:06.415Z,6.33
2023-04-18T04:51:38.386Z,6.35
2023-04-18T04:54:11.060Z,6.30
2023-04-18T04:56:42.985Z,6.29
2023-04-18T04:59:16.319Z,6.24
2023-04-18T05:01:48.128Z,6.27
2023-04-18T05:04:20.265Z,6.24
2023-04-18T05:06:52.372Z,6.30
2023-04-18T05:09:24.235Z,6.34
2023-04-18T05:11:56.106Z,6.35
2023-04-18T05:14:29.148Z,6.35
2023-04-18T05:17:01.151Z,6.22
2023-04-18T05:19:32.932Z,6.30
2023-04-18T05:22:04.706Z,6.23
2023-04-18T05:24:36.543Z,6.25
2023-04-18T05:27:08.479Z,6.28
2023-04-18T05:29:41.593Z,6.25
2023-04-18T05:32:13.422Z,6.33
2023-04-18T05:34:45.256Z,6.39
2023-04-18T05:37:17.369Z,6.38
2023-04-18T05:39:49.167Z,6.34
2023-04-18T05:42:20.935Z,6.42
2023-04-18T05:44:54.152Z,6.38
2023-04-18T05:47:28.424Z,6.39
2023-04-18T05:50:00.460Z,6.26
2023-04-18T05:52:32.843Z,6.31
2023-04-18T05:55:04.755Z,6.41
2023-04-18T05:57:36.636Z,6.32
2023-04-18T06:00:12.936Z,6.38
2023-04-18T06:02:45.117Z,6.40
2023-04-18T06:05:17.648Z,6.38
2023-04-18T06:07:49.648Z,6.37
2023-04-18T06:10:21.554Z,6.43
2023-04-18T06:12:53.453Z,6.40
2023-04-18T06:15:26.635Z,6.42
2023-04-18T06:17:58.614Z,6.34
2023-04-18T06:20:30.478Z,6.36
2023-04-18T06:23:02.194Z,6.34
2023-04-18T06:25:34.062Z,6.37
2023-04-18T06:28:05.960Z,6.39
2023-04-18T06:30:39.198Z,6.37
2023-04-18T06:33:11.333Z,6.33
2023-04-18T06:35:43.499Z,6.34
2023-04-18T06:38:15.943Z,6.36
2023-04-18T06:40:47.910Z,6.39
2023-04-18T06:43:19.687Z,6.39
2023-04-18T06:45:52.756Z,6.39
2023-04-18T06:48:24.644Z,6.44
2023-04-18T06:50:56.571Z,6.43
2023-04-18T06:53:28.476Z,6.44
2023-04-18T06:56:00.391Z,6.35
2023-04-18T06:58:32.271Z,6.42
2023-04-18T07:01:06.153Z,6.39
2023-04-18T07:03:37.940Z,6.41
2023-04-18T07:06:11.587Z,6.39
2023-04-18T07:08:43.450Z,6.39
2023-04-18T07:11:18.483Z,6.33
2023-04-18T07:13:50.485Z,6.31
2023-04-18T07:16:23.436Z,6.34
2023-04-18T07:18:55.249Z,6.29
2023-04-18T07:21:27.370Z,6.28
2023-04-18T07:23:59.012Z,6.35
2023-04-18T07:26:30.868Z,6.41
2023-04-18T07:29:02.786Z,6.39
2023-04-18T07:31:36.098Z,6.44
2023-04-18T07:34:08.970Z,6.45
2023-04-18T07:36:41.902Z,6.52
2023-04-18T07:39:13.781Z,6.61
2023-04-18T07:41:45.799Z,6.61
2023-04-18T07:44:18.214Z,6.63
2023-04-18T07:46:51.144Z,6.71
2023-04-18T07:49:23.014Z,6.78
2023-04-18T07:51:54.824Z,6.81
2023-04-18T07:54:26.765Z,6.82
2023-04-18T07:56:59.049Z,6.83
2023-04-18T07:59:32.133Z,6.91
2023-04-18T08:02:05.236Z,6.94
2023-04-18T08:04:37.063Z,6.98
2023-04-18T08:07:08.704Z,7.06
2023-04-18T08:09:40.548Z,7.08
2023-04-18T08:12:12.342Z,7.13
2023-04-18T08:14:44.157Z,7.18
2023-04-18T08:17:17.122Z,7.29
2023-04-18T08:19:48.951Z,7.38
2023-04-18T08:22:20.951Z,7.46
2023-04-18T08:27:28.959Z,7.66
2023-04-18T08:30:01.712Z,7.76
2023-04-18T08:32:36.685Z,7.84
2023-04-18T08:35:09.366Z,7.94
2023-04-18T08:37:41.176Z,8.04
2023-04-18T08:40:14.141Z,8.12
2023-04-18T08:42:48.857Z,8.14
2023-04-18T08:45:24.175Z,8.26
2023-04-18T08:48:01.285Z,8.31
2023-04-18T08:50:34.652Z,8.31
2023-04-18T08:53:08.022Z,8.36
2023-04-18T08:55:40.489Z,8.43
2023-04-18T08:58:12.412Z,8.48
2023-04-18T09:00:53.031Z,8.53
2023-04-18T09:03:41.525Z,8.57
2023-04-18T09:06:20.216Z,8.67
2023-04-18T09:09:03.899Z,8.68
2023-04-18T09:11:36.103Z,8.71
2023-04-18T09:14:08.018Z,8.77
2023-04-18T09:16:50.485Z,8.80
2023-04-18T09:19:23.752Z,8.86
2023-04-18T09:22:04.503Z,8.91
2023-04-18T09:24:37.119Z,8.93
2023-04-18T09:27:14.895Z,8.95
2023-04-18T09:29:50.314Z,8.92
2023-04-18T09:32:29.628Z,8.90
2023-04-18T09:35:05.420Z,9.03
2023-04-18T09:37:39.146Z,8.95
2023-04-18T09:40:21.617Z,9.06
2023-04-18T09:42:56.509Z,9.23
2023-04-18T09:45:29.851Z,9.39
2023-04-18T09:48:01.762Z,9.60
2023-04-18T09:50:37.855Z,9.60
2023-04-18T09:53:13.280Z,9.52
2023-04-18T09:55:47.245Z,9.51
2023-04-18T09:58:22.294Z,9.51
2023-04-18T10:00:57.304Z,9.48
2023-04-18T10:03:42.334Z,9.42
2023-04-18T10:06:17.836Z,9.39
2023-04-18T10:08:52.745Z,9.44
2023-04-18T10:11:25.085Z,9.48
2023-04-18T10:14:03.563Z,9.54
2023-04-18T10:16:36.255Z,9.56
2023-04-18T10:19:26.828Z,9.57
2023-04-18T10:22:02.761Z,9.64
2023-04-18T10:24:57.056Z,9.64
2023-04-18T10:28:01.217Z,9.73
2023-04-18T10:31:03.479Z,9.64
2023-04-18T10:33:40.942Z,9.73
2023-04-18T10:36:21.686Z,9.81
2023-04-18T10:39:00.652Z,9.85
2023-04-18T10:41:35.585Z,9.92
2023-04-18T10:44:24.230Z,10.05
2023-04-18T10:47:32.717Z,10.18
2023-04-18T10:50:07.070Z,10.36
2023-04-18T10:52:39.402Z,10.37
2023-04-18T10:55:32.713Z,10.46
2023-04-18T10:58:06.283Z,10.63
2023-04-18T11:00:38.124Z,10.61
2023-04-18T11:03:10.572Z,10.64
2023-04-18T11:05:42.456Z,10.65
2023-04-18T11:08:28.616Z,10.58
2023-04-18T11:11:09.401Z,10.63
2023-04-18T11:13:55.385Z,10.69
2023-04-18T11:16:34.877Z,10.66
2023-04-18T11:19:19.118Z,10.66
2023-04-18T11:21:51.678Z,10.63
2023-04-18T11:24:27.344Z,10.69
2023-04-18T11:27:00.678Z,10.77
2023-04-18T11:29:32.312Z,10.80
2023-04-18T11:32:06.601Z,10.94
2023-04-18T11:34:38.617Z,10.97
2023-04-18T11:37:11.394Z,10.98
2023-04-18T11:39:46.525Z,11.08
2023-04-18T11:42:19.837Z,11.19
2023-04-18T11:44:51.704Z,11.45
2023-04-18T11:47:31.618Z,11.54
2023-04-18T11:50:06.946Z,11.47
2023-04-18T11:52:41.442Z,11.48
2023-04-18T11:55:22.053Z,11.47
2023-04-18T11:57:59.644Z,11.46
2023-04-18T12:00:38.461Z,11.52
2023-04-18T12:03:18.832Z,11.78
2023-04-18T12:05:59.002Z,11.96
2023-04-18T12:08:32.224Z,11.96
2023-04-18T12:11:03.797Z,12.30
2023-04-18T12:13:38.101Z,12.32
2023-04-18T12:16:11.330Z,12.50
2023-04-18T12:18:42.982Z,12.43
2023-04-18T12:21:17.052Z,12.28
2023-04-18T12:23:48.702Z,12.47
2023-04-18T12:26:22.790Z,12.56
2023-04-18T12:28:56.885Z,12.54
2023-04-18T12:31:28.858Z,12.71
2023-04-18T12:34:00.538Z,13.04
2023-04-18T12:36:32.435Z,13.31
2023-04-18T12:39:04.461Z,13.41
2023-04-18T12:41:36.112Z,13.46
2023-04-18T12:44:09.764Z,13.32
2023-04-18T12:46:41.673Z,13.32
2023-04-18T12:49:13.699Z,12.95
2023-04-18T12:51:45.545Z,12.92
2023-04-18T12:54:17.380Z,13.04
2023-04-18T12:56:50.187Z,13.03
2023-04-18T12:59:23.317Z,13.33
2023-04-18T13:01:55.210Z,13.64
2023-04-18T13:04:27.145Z,13.82
2023-04-18T13:06:59.179Z,13.81
2023-04-18T13:09:31.546Z,13.80
2023-04-18T13:12:03.518Z,13.80
2023-04-18T13:14:36.446Z,13.61
2023-04-18T13:17:08.677Z,13.36
2023-04-18T13:19:41.467Z,13.24
2023-04-18T13:22:13.300Z,13.39
2023-04-18T13:24:45.145Z,13.32
2023-04-18T13:27:17.126Z,13.32
2023-04-18T13:29:50.167Z,13.31
2023-04-18T13:32:22.202Z,13.57
2023-04-18T13:34:56.065Z,13.95
2023-04-18T13:37:28.224Z,13.95
2023-04-18T13:40:00.238Z,13.73
2023-04-18T13:42:32.114Z,13.77
2023-04-18T13:45:05.188Z,13.56
2023-04-18T13:47:37.498Z,13.92
2023-04-18T13:50:11.752Z,14.27
2023-04-18T13:52:43.526Z,14.65
2023-04-18T13:55:16.083Z,14.50
2023-04-18T13:57:47.735Z,14.35
2023-04-18T14:00:23.413Z,14.67
2023-04-18T14:02:57.509Z,14.83
2023-04-18T14:05:30.531Z,15.01
2023-04-18T14:08:03.935Z,15.19
2023-04-18T14:10:36.109Z,15.19
2023-04-18T14:13:07.976Z,15.23
2023-04-18T14:15:41.286Z,15.23
2023-04-18T14:18:13.176Z,15.54
2023-04-18T14:20:45.036Z,15.53
2023-04-18T14:23:16.963Z,15.76
2023-04-18T14:25:48.771Z,15.85
2023-04-18T14:28:24.765Z,15.98
2023-04-18T14:31:01.933Z,15.92
2023-04-18T14:33:34.946Z,15.78
2023-04-18T14:36:09.283Z,16.10
2023-04-18T14:38:41.626Z,16.19
2023-04-18T14:41:13.544Z,15.96
2023-04-18T14:43:45.401Z,15.75
2023-04-18T14:46:18.858Z,16.00
2023-04-18T14:48:50.914Z,16.03
2023-04-18T14:51:22.768Z,16.04
2023-04-18T14:53:55.472Z,15.94
2023-04-18T14:56:27.202Z,16.21
2023-04-18T14:58:59.023Z,16.38
2023-04-18T15:01:32.407Z,16.47
2023-04-18T15:04:04.458Z,16.13
2023-04-18T15:06:36.937Z,15.80
2023-04-18T15:09:08.620Z,15.46
2023-04-18T15:11:40.540Z,15.64
2023-04-18T15:14:14.113Z,15.82
2023-04-18T15:16:49.823Z,15.94
2023-04-18T15:19:21.775Z,16.15
2023-04-18T15:21:54.160Z,16.39
2023-04-18T15:24:26.331Z,16.37
2023-04-18T15:26:58.733Z,15.97
2023-04-18T15:29:30.570Z,15.86
2023-04-18T15:32:05.090Z,15.65
2023-04-18T15:34:37.099Z,15.47
2023-04-18T15:37:09.304Z,15.06
2023-04-18T15:39:40.930Z,15.14
2023-04-18T15:42:12.881Z,14.93
2023-04-18T15:44:44.515Z,14.98
2023-04-18T15:47:17.656Z,14.90
2023-04-18T15:49:50.578Z,14.99
2023-04-18T15:52:22.419Z,14.88
2023-04-18T15:54:55.369Z,15.01
2023-04-18T15:57:29.272Z,15.20
2023-04-18T16:00:01.206Z,15.33
2023-04-18T16:02:34.234Z,15.17
2023-04-18T16:05:05.962Z,15.16
2023-04-18T16:07:38.118Z,15.41
2023-04-18T16:10:11.153Z,15.48
2023-04-18T16:12:43.208Z,15.65
2023-04-18T16:15:15.600Z,15.66
2023-04-18T16:17:49.366Z,15.37
2023-04-18T16:20:21.223Z,15.23
2023-04-18T16:22:53.079Z,15.06
2023-04-18T16:25:24.836Z,15.11
2023-04-18T16:27:56.689Z,14.95
2023-04-18T16:30:28.498Z,14.92
2023-04-18T16:33:01.693Z,14.88
2023-04-18T16:35:33.633Z,14.62
2023-04-18T16:38:05.362Z,14.68
2023-04-18T16:40:36.965Z,14.57
2023-04-18T16:43:08.815Z,14.54
2023-04-18T16:45:40.847Z,14.61
2023-04-18T16:48:13.790Z,14.31
2023-04-18T16:50:45.713Z,14.21
2023-04-18T16:53:17.676Z,14.18
2023-04-18T16:55:50.327Z,14.24
2023-04-18T16:58:23.163Z,14.23
2023-04-18T17:00:54.753Z,14.24
2023-04-18T17:03:27.928Z,14.31
2023-04-18T17:06:00.794Z,14.10
2023-04-18T17:08:33.658Z,14.20
2023-04-18T17:11:05.507Z,14.06
2023-04-18T17:13:36.527Z,14.04
2023-04-18T17:16:09.541Z,14.01
2023-04-18T17:18:42.730Z,14.11
2023-04-18T17:21:14.501Z,14.18
2023-04-18T17:23:47.389Z,13.89
2023-04-18T17:26:19.367Z,13.97
2023-04-18T17:28:51.286Z,13.88
2023-04-18T17:31:23.315Z,13.96
2023-04-18T17:33:56.376Z,13.91
2023-04-18T17:36:29.761Z,13.88
2023-04-18T17:39:06.158Z,13.87
2023-04-18T17:41:41.763Z,13.86
2023-04-18T17:44:13.682Z,13.76
2023-04-18T17:46:46.770Z,13.86
2023-04-18T17:49:20.501Z,13.80
2023-04-18T17:51:52.364Z,13.73
2023-04-18T17:54:24.204Z,13.82
2023-04-18T17:56:57.754Z,13.77
2023-04-18T17:59:37.422Z,13.57
2023-04-18T18:02:11.640Z,13.64
2023-04-18T18:04:44.865Z,13.65
2023-04-18T18:07:16.638Z,13.68
2023-04-18T18:09:48.656Z,13.67
2023-04-18T18:12:20.473Z,13.68
2023-04-18T18:14:52.354Z,13.63
2023-04-18T18:17:24.357Z,13.50
2023-04-18T18:19:57.485Z,13.53
2023-04-18T18:22:29.162Z,13.44
2023-04-18T18:25:00.838Z,13.43
2023-04-18T18:27:32.700Z,13.31
2023-04-18T18:30:06.624Z,13.29
2023-04-18T18:32:38.462Z,13.18
2023-04-18T18:35:12.927Z,13.21
2023-04-18T18:37:46.216Z,13.12
2023-04-18T18:40:18.020Z,13.12
2023-04-18T18:42:51.360Z,13.07
2023-04-18T18:45:24.931Z,13.08
2023-04-18T18:47:56.868Z,13.02
2023-04-18T18:50:29.855Z,12.97
2023-04-18T18:53:02.374Z,12.86
2023-04-18T18:55:34.843Z,12.92
2023-04-18T18:58:08.209Z,12.96
2023-04-18T19:00:41.498Z,12.93
2023-04-18T19:03:18.325Z,12.89
2023-04-18T19:05:51.582Z,12.90
2023-04-18T19:08:24.971Z,12.89
2023-04-18T19:10:56.883Z,12.89
2023-04-18T19:13:28.750Z,12.87
2023-04-18T19:16:00.745Z,12.82
2023-04-18T19:18:32.728Z,12.60
2023-04-18T19:21:05.723Z,12.65
2023-04-18T19:23:37.632Z,12.57
2023-04-18T19:26:09.545Z,12.46
2023-04-18T19:28:41.911Z,12.30
2023-04-18T19:31:13.829Z,12.36
2023-04-18T19:33:45.942Z,12.24
2023-04-18T19:36:19.021Z,12.27
2023-04-18T19:38:50.745Z,12.21
2023-04-18T19:41:22.650Z,12.13
2023-04-18T19:43:54.484Z,12.12
2023-04-18T19:46:27.905Z,12.11
2023-04-18T19:48:59.569Z,12.12
2023-04-18T19:51:32.679Z,11.98
2023-04-18T19:54:04.620Z,11.96
2023-04-18T19:56:36.530Z,11.97
2023-04-18T19:59:08.383Z,12.03
2023-04-18T20:01:40.393Z,12.00
2023-04-18T20:04:14.291Z,11.92
2023-04-18T20:06:47.605Z,11.95
2023-04-18T20:09:19.783Z,11.92
2023-04-18T20:11:54.202Z,11.83
2023-04-18T20:14:26.191Z,11.80
2023-04-18T20:16:57.842Z,11.74
2023-04-18T20:19:29.934Z,11.71
2023-04-18T20:22:03.719Z,11.71
2023-04-18T20:24:35.578Z,11.77
2023-04-18T20:27:07.418Z,11.75
2023-04-18T20:29:39.379Z,11.78
2023-04-18T20:32:12.341Z,11.65
2023-04-18T20:34:44.131Z,11.62
2023-04-18T20:37:19.748Z,11.57
2023-04-18T20:39:52.779Z,11.53
2023-04-18T20:42:24.760Z,11.46
2023-04-18T20:44:58.739Z,11.43
2023-04-18T20:47:30.394Z,11.40
2023-04-18T20:50:02.287Z,11.34
2023-04-18T20:52:35.463Z,11.40
2023-04-18T20:55:07.385Z,11.40
2023-04-18T20:57:39.330Z,11.40
2023-04-18T21:00:14.265Z,11.40
2023-04-18T21:02:46.522Z,11.40
2023-04-18T21:05:18.233Z,11.45
2023-04-18T21:07:51.389Z,11.48
2023-04-18T21:10:23.108Z,11.39
2023-04-18T21:12:54.974Z,11.41
2023-04-18T21:15:26.877Z,11.32
2023-04-18T21:17:58.774Z,11.25
2023-04-18T21:20:30.635Z,11.29
2023-04-18T21:23:03.678Z,11.30
2023-04-18T21:25:35.516Z,11.19
2023-04-18T21:28:07.888Z,11.25
2023-04-18T21:30:39.779Z,11.18
2023-04-18T21:33:11.842Z,11.22
2023-04-18T21:35:43.488Z,11.10
2023-04-18T21:38:16.662Z,11.05
2023-04-18T21:40:48.925Z,11.12
2023-04-18T21:43:20.638Z,11.09
2023-04-18T21:45:52.532Z,11.10
2023-04-18T21:48:24.435Z,10.91
2023-04-18T21:50:59.198Z,10.90
2023-04-18T21:53:32.437Z,10.88
2023-04-18T21:56:05.460Z,10.87
2023-04-18T21:58:37.419Z,10.88
2023-04-18T22:01:09.331Z,10.86
2023-04-18T22:03:41.645Z,10.80
2023-04-18T22:06:13.410Z,10.87
2023-04-18T22:08:46.575Z,10.81
2023-04-18T22:11:18.954Z,10.82
2023-04-18T22:13:54.193Z,10.73
2023-04-18T22:16:28.691Z,10.68
2023-04-18T22:19:01.072Z,10.65
2023-04-18T22:21:32.974Z,10.53
2023-04-18T22:24:06.024Z,10.48
2023-04-18T22:26:37.892Z,10.40
2023-04-18T22:29:09.857Z,10.43
2023-04-18T22:31:43.049Z,10.38
2023-04-18T22:34:14.931Z,10.39
2023-04-18T22:36:46.894Z,10.33
2023-04-18T22:39:20.292Z,10.26
2023-04-18T22:41:52.100Z,10.22
2023-04-18T22:44:23.945Z,10.27
2023-04-18T22:46:55.902Z,10.30
2023-04-18T22:49:27.558Z,10.16
2023-04-18T22:51:59.598Z,10.21
2023-04-18T22:54:32.572Z,10.10
2023-04-18T22:57:04.467Z,10.02
2023-04-18T22:59:36.415Z,9.99
2023-04-18T23:02:08.347Z,9.98
2023-04-18T23:04:42.159Z,9.95
2023-04-18T23:07:14.323Z,9.91
2023-04-18T23:09:47.380Z,9.93
2023-04-18T23:12:19.214Z,9.90
2023-04-18T23:14:51.105Z,9.80
2023-04-18T23:17:23.008Z,9.80
2023-04-18T23:19:54.860Z,9.84
2023-04-18T23:22:26.713Z,9.89
2023-04-18T23:25:00.175Z,9.88
2023-04-18T23:27:32.053Z,9.71
2023-04-18T23:30:03.994Z,9.69
2023-04-18T23:32:35.864Z,9.65
2023-04-18T23:35:07.820Z,9.73
2023-04-18T23:37:40.118Z,9.63
2023-04-18T23:40:14.491Z,9.56
2023-04-18T23:42:47.096Z,9.53
2023-04-18T23:45:20.634Z,9.57
2023-04-18T23:47:52.479Z,9.45
2023-04-18T23:50:24.569Z,9.45
2023-04-18T23:52:56.385Z,9.45
2023-04-18T23:55:29.738Z,9.41
2023-04-18T23:58:01.730Z,9.32
